createdAt,value
2023-02-19T00:00:53.259Z,14.20
2023-02-19T00:03:59.227Z,13.05
2023-02-19T00:07:02.012Z,13.07
2023-02-19T00:10:04.960Z,13.63
2023-02-19T00:13:08.964Z,13.00
2023-02-19T00:16:18.268Z,12.77
2023-02-19T00:19:21.614Z,13.55
2023-02-19T00:22:24.504Z,12.77
2023-02-19T00:25:27.303Z,13.63
2023-02-19T00:28:30.077Z,12.40
2023-02-19T00:31:35.678Z,12.65
2023-02-19T00:34:38.502Z,13.77
2023-02-19T00:37:41.257Z,12.80
2023-02-19T00:40:44.208Z,12.88
2023-02-19T00:43:46.881Z,12.27
2023-02-19T00:46:50.064Z,11.90
2023-02-19T00:49:52.868Z,12.75
2023-02-19T00:52:55.622Z,12.18
2023-02-19T00:55:58.368Z,11.30
2023-02-19T00:59:01.156Z,12.50
2023-02-19T01:02:04.206Z,12.93
2023-02-19T01:05:07.216Z,11.23
2023-02-19T01:08:10.750Z,13.68
2023-02-19T01:11:14.304Z,11.00
2023-02-19T01:14:17.099Z,11.73
2023-02-19T01:17:20.451Z,10.43
2023-02-19T01:20:23.343Z,11.77
2023-02-19T01:23:26.605Z,11.60
2023-02-19T01:26:32.064Z,11.40
2023-02-19T01:29:34.837Z,10.80
2023-02-19T01:32:38.159Z,11.77
2023-02-19T01:35:41.199Z,10.98
2023-02-19T01:38:44.868Z,11.13
2023-02-19T01:41:47.711Z,10.73
2023-02-19T01:45:24.416Z,11.63
2023-02-19T01:48:38.788Z,10.32
2023-02-19T01:52:08.128Z,10.82
2023-02-19T01:55:14.021Z,11.68
2023-02-19T01:58:17.282Z,11.23
2023-02-19T02:01:20.336Z,12.30
2023-02-19T02:04:24.482Z,12.23
2023-02-19T02:07:45.927Z,10.75
2023-02-19T02:10:50.753Z,10.82
2023-02-19T02:13:54.636Z,10.07
2023-02-19T02:17:03.435Z,10.53
2023-02-19T02:20:41.451Z,9.90
2023-02-19T02:24:11.963Z,9.77
2023-02-19T02:27:49.470Z,8.70
2023-02-19T02:31:15.426Z,9.18
2023-02-19T02:34:27.872Z,9.13
2023-02-19T02:37:35.854Z,8.75
2023-02-19T02:40:43.100Z,9.65
2023-02-19T02:43:46.989Z,9.10
2023-02-19T02:46:51.561Z,10.10
2023-02-19T02:50:07.079Z,9.30
2023-02-19T02:53:41.274Z,9.88
2023-02-19T02:56:46.751Z,9.90
2023-02-19T02:59:50.731Z,9.80
2023-02-19T03:02:57.557Z,9.98
2023-02-19T03:06:05.170Z,9.13
2023-02-19T03:09:13.599Z,8.35
2023-02-19T03:12:38.249Z,8.90
2023-02-19T03:16:09.881Z,8.93
2023-02-19T03:19:21.149Z,8.80
2023-02-19T03:22:30.963Z,8.00
2023-02-19T03:25:56.462Z,7.85
2023-02-19T03:29:24.076Z,7.63
2023-02-19T03:32:39.328Z,7.93
2023-02-19T03:35:50.093Z,7.10
2023-02-19T03:39:15.608Z,7.93
2023-02-19T03:42:30.627Z,7.40
2023-02-19T03:45:43.267Z,7.75
2023-02-19T03:48:53.435Z,7.18
2023-02-19T03:52:13.057Z,7.53
2023-02-19T03:55:23.847Z,6.67
2023-02-19T03:58:49.604Z,6.78
2023-02-19T04:01:56.803Z,6.95
2023-02-19T04:05:14.015Z,6.65
2023-02-19T04:08:20.173Z,8.05
2023-02-19T04:11:31.733Z,8.17
2023-02-19T04:14:44.592Z,6.47
2023-02-19T04:17:57.493Z,7.70
2023-02-19T04:21:02.888Z,7.53
2023-02-19T04:24:15.036Z,7.20
2023-02-19T04:27:18.382Z,7.10
2023-02-19T04:30:21.773Z,7.60
2023-02-19T04:33:24.488Z,7.68
2023-02-19T04:36:27.349Z,6.55
2023-02-19T04:39:30.168Z,7.47
2023-02-19T04:42:32.924Z,7.20
2023-02-19T04:45:37.913Z,6.05
2023-02-19T04:48:40.810Z,5.70
2023-02-19T04:51:43.799Z,5.57
2023-02-19T04:54:46.560Z,6.95
2023-02-19T04:57:49.401Z,5.70
2023-02-19T05:00:53.166Z,5.35
2023-02-19T05:03:56.006Z,5.70
2023-02-19T05:06:58.766Z,5.50
2023-02-19T05:10:01.506Z,5.50
2023-02-19T05:13:04.387Z,5.50
2023-02-19T05:16:13.869Z,5.72
2023-02-19T05:19:16.985Z,5.82
2023-02-19T05:22:19.767Z,5.90
2023-02-19T05:25:22.499Z,5.93
2023-02-19T05:28:29.140Z,6.20
2023-02-19T05:31:33.989Z,6.20
2023-02-19T05:34:36.901Z,6.70
2023-02-19T05:37:39.741Z,6.70
2023-02-19T05:40:43.557Z,7.20
2023-02-19T05:43:48.274Z,6.57
2023-02-19T05:46:51.012Z,7.40
2023-02-19T05:49:53.756Z,6.55
2023-02-19T05:52:56.525Z,6.57
2023-02-19T05:55:59.512Z,6.95
2023-02-19T05:59:08.454Z,7.17
2023-02-19T06:02:12.032Z,6.25
2023-02-19T06:05:15.001Z,7.07
2023-02-19T06:08:17.757Z,6.75
2023-02-19T06:11:20.705Z,7.00
2023-02-19T06:14:23.567Z,7.20
2023-02-19T06:17:26.273Z,7.20
2023-02-19T06:20:30.485Z,13.27
2023-02-19T06:23:33.617Z,16.27
2023-02-19T06:26:36.953Z,25.73
2023-02-19T06:29:40.087Z,17.73
2023-02-19T06:32:43.127Z,12.50
2023-02-19T06:35:45.892Z,14.00
2023-02-19T06:38:49.164Z,8.98
2023-02-19T06:41:55.043Z,7.47
2023-02-19T06:44:57.798Z,6.67
2023-02-19T06:48:00.576Z,8.15
2023-02-19T06:51:03.949Z,9.23
2023-02-19T06:54:06.829Z,8.25
2023-02-19T06:57:09.568Z,8.00
2023-02-19T07:00:12.599Z,7.23
2023-02-19T07:03:15.581Z,7.68
2023-02-19T07:06:22.547Z,7.70
2023-02-19T07:09:25.622Z,7.78
2023-02-19T07:12:28.351Z,7.13
2023-02-19T07:15:31.266Z,6.90
2023-02-19T07:18:34.465Z,7.68
2023-02-19T07:21:38.039Z,6.80
2023-02-19T07:24:40.858Z,7.60
2023-02-19T07:27:43.632Z,8.73
2023-02-19T07:30:46.838Z,8.17
2023-02-19T07:33:52.264Z,7.50
2023-02-19T07:36:54.981Z,6.95
2023-02-19T07:39:57.706Z,8.05
2023-02-19T07:43:00.849Z,8.40
2023-02-19T07:46:08.400Z,8.30
2023-02-19T07:49:11.440Z,8.15
2023-02-19T07:52:14.298Z,9.43
2023-02-19T07:55:17.155Z,9.48
2023-02-19T07:58:20.288Z,9.23
2023-02-19T08:01:44.528Z,8.87
2023-02-19T08:04:48.203Z,7.63
2023-02-19T08:07:50.932Z,8.45
2023-02-19T08:11:12.684Z,9.00
2023-02-19T08:14:15.810Z,7.40
2023-02-19T08:17:18.614Z,7.77
2023-02-19T08:20:21.459Z,7.75
2023-02-19T08:23:24.588Z,8.15
2023-02-19T08:26:27.366Z,8.48
2023-02-19T08:29:30.124Z,7.63
2023-02-19T08:32:32.924Z,8.37
2023-02-19T08:35:36.817Z,7.93
2023-02-19T08:38:39.677Z,8.73
2023-02-19T08:41:42.552Z,7.95
2023-02-19T08:44:45.298Z,7.05
2023-02-19T08:47:48.066Z,7.30
2023-02-19T08:50:59.078Z,7.75
2023-02-19T08:54:03.950Z,7.70
2023-02-19T08:57:06.819Z,7.80
2023-02-19T09:00:10.682Z,7.20
2023-02-19T09:03:13.508Z,9.43
2023-02-19T09:06:19.081Z,7.40
2023-02-19T09:09:21.889Z,8.68
2023-02-19T09:12:25.375Z,8.18
2023-02-19T09:15:29.730Z,8.30
2023-02-19T09:18:33.321Z,8.23
2023-02-19T09:21:36.133Z,7.13
2023-02-19T09:24:39.034Z,8.45
2023-02-19T09:27:41.925Z,7.75
2023-02-19T09:30:44.702Z,7.38
2023-02-19T09:33:48.692Z,7.73
2023-02-19T09:36:51.828Z,7.93
2023-02-19T09:39:55.420Z,8.75
2023-02-19T09:43:00.912Z,7.82
2023-02-19T09:46:22.494Z,7.63
2023-02-19T09:49:39.457Z,8.73
2023-02-19T09:52:47.293Z,6.68
2023-02-19T09:55:52.762Z,7.93
2023-02-19T09:58:58.603Z,7.97
2023-02-19T10:02:13.382Z,8.30
2023-02-19T10:05:16.688Z,7.60
2023-02-19T10:08:21.655Z,7.82
2023-02-19T10:11:26.588Z,7.68
2023-02-19T10:14:47.733Z,7.53
2023-02-19T10:17:50.791Z,6.75
2023-02-19T10:20:55.045Z,7.73
2023-02-19T10:24:01.940Z,7.28
2023-02-19T10:27:10.542Z,6.47
2023-02-19T10:30:25.633Z,7.40
2023-02-19T10:33:28.879Z,6.80
2023-02-19T10:36:42.042Z,8.30
2023-02-19T10:39:47.603Z,7.40
2023-02-19T10:42:54.561Z,5.90
2023-02-19T10:46:00.138Z,6.90
2023-02-19T10:49:06.756Z,7.95
2023-02-19T10:52:25.673Z,6.53
2023-02-19T10:55:37.948Z,6.88
2023-02-19T10:58:42.547Z,7.88
2023-02-19T11:01:56.090Z,7.03
2023-02-19T11:05:06.521Z,6.47
2023-02-19T11:08:22.162Z,6.03
2023-02-19T11:11:45.131Z,6.72
2023-02-19T11:14:47.983Z,7.10
2023-02-19T11:18:03.525Z,6.00
2023-02-19T11:21:07.600Z,5.60
2023-02-19T11:24:31.456Z,6.13
2023-02-19T11:27:34.438Z,5.60
2023-02-19T11:30:42.290Z,6.25
2023-02-19T11:33:53.692Z,6.35
2023-02-19T11:37:13.722Z,6.20
2023-02-19T11:40:16.741Z,6.47
2023-02-19T11:43:40.771Z,5.72
2023-02-19T11:46:58.868Z,6.18
2023-02-19T11:50:29.645Z,6.80
2023-02-19T11:53:37.366Z,6.78
2023-02-19T11:56:43.277Z,7.07
2023-02-19T12:00:14.162Z,4.45
2023-02-19T12:03:46.211Z,6.18
2023-02-19T12:07:07.744Z,5.68
2023-02-19T12:10:13.435Z,6.13
2023-02-19T12:13:57.579Z,5.80
2023-02-19T12:17:35.690Z,6.25
2023-02-19T12:20:57.264Z,5.68
2023-02-19T12:24:03.201Z,5.43
2023-02-19T12:27:32.428Z,6.43
2023-02-19T12:31:03.576Z,6.23
2023-02-19T12:34:27.981Z,5.93
2023-02-19T12:38:14.281Z,7.22
2023-02-19T12:41:20.232Z,6.38
2023-02-19T12:44:47.004Z,7.25
2023-02-19T12:48:06.669Z,6.77
2023-02-19T12:51:27.540Z,6.28
2023-02-19T12:54:38.851Z,6.10
2023-02-19T12:57:41.836Z,6.60
2023-02-19T13:00:50.694Z,6.85
2023-02-19T13:04:20.788Z,6.07
2023-02-19T13:07:29.111Z,6.45
2023-02-19T13:10:50.768Z,6.40
2023-02-19T13:14:03.635Z,6.55
2023-02-19T13:17:38.679Z,6.03
2023-02-19T13:20:43.737Z,6.67
2023-02-19T13:23:58.682Z,6.60
2023-02-19T13:27:13.520Z,6.82
2023-02-19T13:30:34.810Z,6.50
2023-02-19T13:34:06.577Z,6.78
2023-02-19T13:37:11.618Z,6.67
2023-02-19T13:40:33.486Z,5.80
2023-02-19T13:43:39.131Z,5.88
2023-02-19T13:46:44.007Z,6.50
2023-02-19T13:49:49.537Z,6.78
2023-02-19T13:52:54.235Z,6.07
2023-02-19T13:55:57.256Z,6.80
2023-02-19T13:59:45.421Z,6.53
2023-02-19T14:02:48.463Z,6.80
2023-02-19T14:06:05.464Z,7.18
2023-02-19T14:09:37.440Z,7.07
2023-02-19T14:12:40.632Z,6.53
2023-02-19T14:15:49.884Z,5.93
2023-02-19T14:18:53.003Z,6.65
2023-02-19T14:21:56.324Z,6.60
2023-02-19T14:25:00.704Z,6.47
2023-02-19T14:28:18.530Z,7.07
2023-02-19T14:31:25.158Z,6.80
2023-02-19T14:34:29.604Z,5.70
2023-02-19T14:37:33.528Z,6.40
2023-02-19T14:40:41.801Z,6.93
2023-02-19T14:43:46.893Z,6.57
2023-02-19T14:46:52.682Z,7.43
2023-02-19T14:50:01.498Z,7.00
2023-02-19T14:53:07.983Z,7.07
2023-02-19T14:56:25.275Z,7.70
2023-02-19T14:59:31.330Z,7.30
2023-02-19T15:02:43.100Z,7.72
2023-02-19T15:05:46.236Z,8.20
2023-02-19T15:08:53.140Z,7.55
2023-02-19T15:11:58.010Z,7.67
2023-02-19T15:15:05.019Z,8.57
2023-02-19T15:18:18.457Z,7.70
2023-02-19T15:21:24.845Z,7.85
2023-02-19T15:24:29.206Z,6.57
2023-02-19T15:27:35.738Z,8.23
2023-02-19T15:30:40.206Z,8.20
2023-02-19T15:33:51.370Z,8.98
2023-02-19T15:37:06.690Z,9.88
2023-02-19T15:40:15.228Z,10.02
2023-02-19T15:43:31.535Z,10.37
2023-02-19T15:46:37.443Z,10.02
2023-02-19T15:49:54.118Z,9.38
2023-02-19T15:53:09.548Z,11.95
2023-02-19T15:56:28.162Z,11.10
2023-02-19T15:59:40.975Z,10.70
2023-02-19T16:02:45.024Z,10.25
2023-02-19T16:06:01.829Z,10.55
2023-02-19T16:09:06.659Z,9.40
2023-02-19T16:12:24.850Z,8.90
2023-02-19T16:15:30.265Z,9.73
2023-02-19T16:18:33.705Z,9.57
2023-02-19T16:21:37.094Z,8.60
2023-02-19T16:24:45.714Z,8.40
2023-02-19T16:27:48.844Z,9.00
2023-02-19T16:31:03.542Z,8.97
2023-02-19T16:34:18.817Z,9.27
2023-02-19T16:37:41.245Z,9.10
2023-02-19T16:40:46.838Z,9.23
2023-02-19T16:43:49.828Z,10.05
2023-02-19T16:46:55.824Z,8.07
2023-02-19T16:50:04.928Z,9.02
2023-02-19T16:53:21.863Z,9.20
2023-02-19T16:56:25.480Z,9.32
2023-02-19T16:59:28.476Z,9.90
2023-02-19T17:02:33.574Z,10.20
2023-02-19T17:05:37.833Z,11.30
2023-02-19T17:08:43.657Z,10.43
2023-02-19T17:11:47.800Z,8.77
2023-02-19T17:14:50.910Z,9.18
2023-02-19T17:17:53.838Z,9.47
2023-02-19T17:21:20.567Z,9.63
2023-02-19T17:24:24.617Z,9.20
2023-02-19T17:27:27.583Z,10.10
2023-02-19T17:30:32.739Z,10.32
2023-02-19T17:33:35.880Z,10.80
2023-02-19T17:36:41.026Z,10.15
2023-02-19T17:39:44.448Z,11.48
2023-02-19T17:42:47.607Z,11.02
2023-02-19T17:45:51.785Z,11.05
2023-02-19T17:48:55.290Z,11.37
2023-02-19T17:51:59.713Z,10.63
2023-02-19T17:55:02.746Z,11.68
2023-02-19T17:58:07.077Z,10.98
2023-02-19T18:01:10.476Z,11.30
2023-02-19T18:04:13.568Z,11.73
2023-02-19T18:07:16.842Z,12.65
2023-02-19T18:10:23.495Z,20.77
2023-02-19T18:13:26.881Z,15.40
2023-02-19T18:16:30.075Z,13.68
2023-02-19T18:19:32.961Z,12.13
2023-02-19T18:22:36.058Z,10.52
2023-02-19T18:25:39.483Z,11.30
2023-02-19T18:28:42.583Z,10.10
2023-02-19T18:31:45.892Z,10.70
2023-02-19T18:34:53.819Z,9.43
2023-02-19T18:37:56.930Z,10.98
2023-02-19T18:40:59.972Z,9.88
2023-02-19T18:44:03.242Z,9.73
2023-02-19T18:47:07.654Z,8.65
2023-02-19T18:50:11.449Z,9.73
2023-02-19T18:53:14.680Z,7.80
2023-02-19T18:56:17.910Z,9.23
2023-02-19T18:59:21.719Z,8.23
2023-02-19T19:02:24.988Z,7.40
2023-02-19T19:05:28.509Z,6.00
2023-02-19T19:08:31.728Z,5.50
2023-02-19T19:11:35.050Z,5.00
2023-02-19T19:14:38.213Z,4.88
2023-02-19T19:17:45.452Z,5.63
2023-02-19T19:20:49.265Z,6.03
2023-02-19T19:23:52.271Z,2.13
2023-02-19T19:26:55.414Z,1.20
2023-02-19T19:29:58.853Z,0.90
2023-02-19T19:33:03.626Z,1.15
2023-02-19T19:36:07.773Z,0.63
2023-02-19T19:39:11.037Z,0.52
2023-02-19T19:42:14.166Z,0.50
2023-02-19T19:45:16.964Z,0.30
2023-02-19T19:48:20.390Z,0.52
2023-02-19T19:51:23.639Z,0.43
2023-02-19T19:54:27.250Z,0.28
2023-02-19T19:57:30.280Z,0.40
2023-02-19T20:00:33.409Z,0.52
2023-02-19T20:03:37.668Z,0.38
2023-02-19T20:06:41.820Z,0.20
2023-02-19T20:09:49.123Z,0.10
2023-02-19T20:12:52.337Z,0.32
2023-02-19T20:15:55.694Z,1.80
2023-02-19T20:18:58.954Z,1.30
2023-02-19T20:22:02.138Z,1.40
2023-02-19T20:25:05.858Z,1.15
2023-02-19T20:28:08.921Z,0.10
2023-02-19T20:31:12.369Z,0.30
2023-02-19T20:34:17.841Z,0.20
2023-02-19T20:37:20.860Z,0.20
2023-02-19T20:40:27.487Z,0.25
2023-02-19T20:43:30.556Z,0.40
2023-02-19T20:46:33.528Z,0.10
2023-02-19T20:49:37.338Z,0.15
2023-02-19T20:52:40.391Z,0.20
2023-02-19T20:55:43.296Z,0.32
2023-02-19T20:58:46.282Z,0.40
2023-02-19T21:01:50.121Z,0.30
2023-02-19T21:04:53.225Z,0.00
2023-02-19T21:07:55.985Z,0.10
2023-02-19T21:10:58.960Z,0.15
2023-02-19T21:14:02.086Z,0.00
2023-02-19T21:17:06.121Z,0.15
2023-02-19T21:20:09.558Z,0.20
2023-02-19T21:23:14.310Z,0.00
2023-02-19T21:26:17.321Z,0.20
2023-02-19T21:29:22.171Z,0.20
2023-02-19T21:32:25.100Z,0.10
2023-02-19T21:35:29.151Z,0.40
2023-02-19T21:38:32.757Z,0.00
2023-02-19T21:41:35.818Z,0.20
2023-02-19T21:44:38.862Z,0.28
2023-02-19T21:47:43.177Z,0.30
2023-02-19T21:50:46.062Z,0.32
2023-02-19T21:53:49.165Z,0.20
2023-02-19T21:56:53.573Z,0.30
2023-02-19T21:59:56.509Z,0.30
2023-02-19T22:02:59.542Z,0.40
2023-02-19T22:06:02.433Z,0.20
2023-02-19T22:09:06.558Z,0.40
2023-02-19T22:12:09.328Z,0.20
2023-02-19T22:15:12.365Z,0.10
2023-02-19T22:18:15.149Z,0.05
2023-02-19T22:21:19.220Z,0.25
2023-02-19T22:24:22.952Z,0.00
2023-02-19T22:27:25.798Z,0.20
2023-02-19T22:30:29.781Z,0.15
2023-02-19T22:33:32.464Z,0.32
2023-02-19T22:36:39.142Z,0.38
2023-02-19T22:39:42.253Z,0.50
2023-02-19T22:42:44.981Z,0.60
2023-02-19T22:45:48.095Z,0.80
2023-02-19T22:48:51.246Z,0.40
2023-02-19T22:51:58.490Z,0.70
2023-02-19T22:55:01.577Z,0.53
2023-02-19T22:58:04.389Z,0.50
2023-02-19T23:01:07.615Z,0.65
2023-02-19T23:04:10.543Z,0.68
2023-02-19T23:07:13.324Z,0.60
2023-02-19T23:10:16.344Z,1.23
2023-02-19T23:13:20.106Z,0.80
2023-02-19T23:16:23.897Z,0.65
2023-02-19T23:19:26.994Z,0.95
2023-02-19T23:22:30.134Z,0.50
2023-02-19T23:25:32.922Z,0.67
2023-02-19T23:28:36.027Z,0.90
2023-02-19T23:31:38.893Z,0.60
2023-02-19T23:34:41.879Z,0.55
2023-02-19T23:37:44.594Z,0.82
2023-02-19T23:40:48.218Z,1.27
2023-02-19T23:43:51.111Z,0.90
2023-02-19T23:46:53.861Z,1.02
2023-02-19T23:49:56.597Z,1.20
2023-02-19T23:52:59.809Z,1.15
2023-02-19T23:56:04.481Z,1.50
2023-02-19T23:59:07.232Z,0.90
